Significant Other — WDB7278 — position and weather

sailwx.info

Track history (hours):
 
Tides and Currents Weather Stations Pressure Air Temp Water Temp Dewpoint Dewpoint Depression Visibility Wind Speed Wind Dir Waves Ship Positions

Significant Other

Owner: Miller, Douglas P, Port Orchard, WA. More information available from US FCC via Universal Licensing System and Coast Guard Vessel Documentation Center.

Last reported at 2015-Jun-22 02:12 UTC. Time now 2015-Jul-02 08:06 UTC.
Position N 47°32' W 122°39'.
Warning: this ship's position is 10 days out of date.

Length 13 m; draft 2 m.

Type: Sailing vessel. MMSI: 366896730.

Date/timePositionNaut miles runAvg speedWind from/ knotsBaromVisibWave heightAir tempDewpointWater temp
2015-Jun-22 02:12N 47°32' W 122°39'0 0.5
2015-Jun-22 01:33N 47°33' W 122°38'5 1.5
2015-Jun-21 22:33N 47°37' W 122°36'4 3.5
2015-Jun-21 21:28N 47°34' W 122°32'1 0.4
2015-Jun-21 19:13N 47°33' W 122°32'0 0.0
2015-Jun-21 18:29N 47°33' W 122°32'0 0.0
2015-Jun-21 17:28N 47°33' W 122°32'2 4.6
2015-Jun-21 16:57N 47°35' W 122°29'1 2.7
2015-Jun-21 16:31N 47°36' W 122°29'0 0.0
2015-Jun-21 15:30N 47°36' W 122°29'0 0.0
2015-Jun-21 14:24N 47°36' W 122°29'1 0.0
2015-Jun-20 22:30N 47°36' W 122°30'0 0.0
2015-Jun-20 22:30N 47°36' W 122°30'2 1.7
2015-Jun-20 21:32N 47°34' W 122°31'3 3.2
2015-Jun-20 20:33N 47°35' W 122°35'  
Track history (hours):
 
Tides and Currents Weather Stations Pressure Air Temp Water Temp Dewpoint Dewpoint Depression Visibility Wind Speed Wind Dir Waves Ship Positions

Significant Other

Owner: Miller, Douglas P, Port Orchard, WA. More information available from US FCC via Universal Licensing System and Coast Guard Vessel Documentation Center.

Last reported at 2015-Jun-22 02:12 UTC. Time now 2015-Jul-02 08:06 UTC.
Position N 47°32' W 122°39'.
Warning: this ship's position is 10 days out of date.

Length 13 m; draft 2 m.

Type: Sailing vessel. MMSI: 366896730.

Date/timePositionNaut miles runAvg speedWind from/ knotsBaromVisibWave heightAir tempDewpointWater temp
2015-Jun-22 02:12N 47°32' W 122°39'0 0.5
2015-Jun-22 01:33N 47°33' W 122°38'5 1.5
2015-Jun-21 22:33N 47°37' W 122°36'4 3.5
2015-Jun-21 21:28N 47°34' W 122°32'1 0.4
2015-Jun-21 19:13N 47°33' W 122°32'0 0.0
2015-Jun-21 18:29N 47°33' W 122°32'0 0.0
2015-Jun-21 17:28N 47°33' W 122°32'2 4.6
2015-Jun-21 16:57N 47°35' W 122°29'1 2.7
2015-Jun-21 16:31N 47°36' W 122°29'0 0.0
2015-Jun-21 15:30N 47°36' W 122°29'0 0.0
2015-Jun-21 14:24N 47°36' W 122°29'1 0.0
2015-Jun-20 22:30N 47°36' W 122°30'0 0.0
2015-Jun-20 22:30N 47°36' W 122°30'2 1.7
2015-Jun-20 21:32N 47°34' W 122°31'3 3.2
2015-Jun-20 20:33N 47°35' W 122°35'  

Dump ship's entire track history